Killingly, Connecticut
Current Conditions -  °F | °C
As of 6:52 AM on Thursday 18 Dec 2014 (Local Time) from KIJD Reporting Station
Light Snow Light Snow  
Wind Chill: 29°   Ceiling: 3500
Heat Index: 35°   Visibility: 9mi
Dew Point: 30°   Wind: 7mph
Humidity: 82%   Direction: 270°W
Pressure: 29.83"   Gusts: NA
Location:  41.7938°N, 71.8615°W
Report Text: KIJD 181152Z AUTO 27006KT 9SM -SN FEW012 OVC035 02/M01 A2983 RMK AO2 UPB1055E1059SNE1055B1059E10B34 SLP101 P0000 60000 T00171011 10039 20017 53013
Loading
Personal Weather Stations






























Interactive Weather Map New forecast layout! Learn more

10-Day Weather Forecast

Advertisements
Track Severe Weather on mobile